createdAt,value
2019-03-23T00:02:30.682Z,10.48
2019-03-23T00:07:24.766Z,10.34
2019-03-23T00:12:18.749Z,10.19
2019-03-23T00:17:12.698Z,10.03
2019-03-23T00:22:06.702Z,9.90
2019-03-23T00:27:00.670Z,9.77
2019-03-23T00:31:54.727Z,9.63
2019-03-23T00:36:48.701Z,9.53
2019-03-23T00:41:42.721Z,9.39
2019-03-23T00:46:36.689Z,9.29
2019-03-23T00:51:30.661Z,9.16
2019-03-23T00:56:24.725Z,9.03
2019-03-23T01:01:18.936Z,8.93
2019-03-23T01:06:12.892Z,8.78
2019-03-23T01:11:06.995Z,8.71
2019-03-23T01:16:01.067Z,8.61
2019-03-23T01:20:55.026Z,8.51
2019-03-23T01:25:49.140Z,8.44
2019-03-23T01:30:43.120Z,8.33
2019-03-23T01:35:37.183Z,8.23
2019-03-23T01:40:31.156Z,8.10
2019-03-23T01:45:25.125Z,8.08
2019-03-23T01:50:19.098Z,7.94
2019-03-23T01:55:13.078Z,7.85
2019-03-23T02:00:09.733Z,7.76
2019-03-23T02:05:06.612Z,7.70
2019-03-23T02:10:00.572Z,7.61
2019-03-23T02:14:54.544Z,7.51
2019-03-23T02:19:48.526Z,7.45
2019-03-23T02:24:42.495Z,7.63
2019-03-23T02:29:36.522Z,7.88
2019-03-23T02:34:30.450Z,8.01
2019-03-23T02:39:24.401Z,8.06
2019-03-23T02:44:18.399Z,8.07
2019-03-23T02:49:12.367Z,8.09
2019-03-23T02:54:06.436Z,8.05
2019-03-23T02:59:00.520Z,7.96
2019-03-23T03:03:54.539Z,7.99
2019-03-23T03:08:48.475Z,8.10
2019-03-23T03:13:42.487Z,8.20
2019-03-23T03:18:36.425Z,8.26
2019-03-23T03:23:30.384Z,8.32
2019-03-23T03:28:24.331Z,8.38
2019-03-23T03:33:18.331Z,8.45
2019-03-23T03:38:12.273Z,8.41
2019-03-23T03:43:06.299Z,8.33
2019-03-23T03:48:00.233Z,8.27
2019-03-23T03:52:54.223Z,8.33
2019-03-23T03:57:48.291Z,8.32
2019-03-23T04:02:42.248Z,8.40
2019-03-23T04:07:36.306Z,8.43
2019-03-23T04:12:30.420Z,8.44
2019-03-23T04:17:24.393Z,8.54
2019-03-23T04:22:18.506Z,8.52
2019-03-23T04:27:12.488Z,8.55
2019-03-23T04:32:06.632Z,8.53
2019-03-23T04:37:00.707Z,8.59
2019-03-23T04:41:54.850Z,8.64
2019-03-23T04:46:48.826Z,8.64
2019-03-23T04:51:42.821Z,8.56
2019-03-23T04:56:36.767Z,8.56
2019-03-23T05:01:30.748Z,8.60
2019-03-23T05:06:24.738Z,8.58
2019-03-23T05:11:18.693Z,8.62
2019-03-23T05:16:12.645Z,8.67
2019-03-23T05:21:06.788Z,8.73
2019-03-23T05:26:02.643Z,8.80
2019-03-23T05:30:56.540Z,8.82
2019-03-23T05:35:50.497Z,8.74
2019-03-23T05:40:44.466Z,8.74
2019-03-23T05:45:38.467Z,8.82
2019-03-23T05:50:32.557Z,8.82
2019-03-23T05:55:26.517Z,8.94
2019-03-23T06:00:20.587Z,8.89
2019-03-23T06:05:14.588Z,8.83
2019-03-23T06:10:08.737Z,8.96
2019-03-23T06:15:05.172Z,9.08
2019-03-23T06:19:59.157Z,9.05
2019-03-23T06:24:53.105Z,9.10
2019-03-23T06:29:47.065Z,9.13
2019-03-23T06:34:41.031Z,9.20
2019-03-23T06:39:34.962Z,9.29
2019-03-23T06:44:28.993Z,9.47
2019-03-23T06:49:22.922Z,9.27
2019-03-23T06:54:16.896Z,9.36
2019-03-23T06:59:11.109Z,9.56
2019-03-23T07:04:05.083Z,9.53
2019-03-23T07:08:59.075Z,9.41
2019-03-23T07:13:53.049Z,9.54
2019-03-23T07:18:47.128Z,9.53
2019-03-23T07:23:41.090Z,9.69
2019-03-23T07:28:35.089Z,9.74
2019-03-23T07:33:29.058Z,9.75
2019-03-23T07:38:23.020Z,9.89
2019-03-23T07:43:17.202Z,9.85
2019-03-23T07:48:11.287Z,9.97
2019-03-23T07:53:05.461Z,10.02
2019-03-23T07:57:59.433Z,10.19
2019-03-23T08:02:53.500Z,10.24
2019-03-23T08:07:47.480Z,10.40
2019-03-23T08:12:41.445Z,10.05
2019-03-23T08:17:35.389Z,10.19
2019-03-23T08:22:29.368Z,10.32
2019-03-23T08:27:23.352Z,10.60
2019-03-23T08:32:17.366Z,10.76
2019-03-23T08:37:11.382Z,10.96
2019-03-23T08:42:05.867Z,11.25
2019-03-23T08:46:59.884Z,11.47
2019-03-23T08:51:53.810Z,11.70
2019-03-23T08:56:47.790Z,11.95
2019-03-23T09:01:41.775Z,12.20
2019-03-23T09:06:35.747Z,12.63
2019-03-23T09:11:29.750Z,12.96
2019-03-23T09:16:23.733Z,13.12
2019-03-23T09:21:17.792Z,12.80
2019-03-23T09:26:13.656Z,12.70
2019-03-23T09:31:07.737Z,13.16
2019-03-23T09:36:01.845Z,13.55
2019-03-23T09:40:55.902Z,13.44
2019-03-23T09:45:49.953Z,13.47
2019-03-23T09:50:43.948Z,13.41
2019-03-23T09:55:38.028Z,13.55
2019-03-23T10:00:32.106Z,13.64
2019-03-23T10:05:26.086Z,13.33
2019-03-23T10:10:21.984Z,12.61
2019-03-23T10:15:15.953Z,12.87
2019-03-23T10:20:10.248Z,12.79
2019-03-23T10:25:05.523Z,12.40
2019-03-23T10:29:59.596Z,12.63
2019-03-23T10:34:53.576Z,12.90
2019-03-23T10:39:47.575Z,12.89
2019-03-23T10:44:41.571Z,12.94
2019-03-23T10:49:35.565Z,12.77
2019-03-23T10:54:29.641Z,12.94
2019-03-23T10:59:23.633Z,12.79
2019-03-23T11:04:17.614Z,12.62
2019-03-23T11:09:11.624Z,12.44
2019-03-23T11:14:05.569Z,12.29
2019-03-23T11:18:59.757Z,12.98
2019-03-23T11:23:53.752Z,13.52
2019-03-23T11:28:47.769Z,13.85
2019-03-23T11:33:42.030Z,14.09
2019-03-23T11:38:36.012Z,14.28
2019-03-23T11:43:30.056Z,14.64
2019-03-23T11:48:24.022Z,16.59
2019-03-23T11:53:18.036Z,17.79
2019-03-23T11:58:12.044Z,19.66
2019-03-23T12:03:06.151Z,22.84
2019-03-23T12:08:00.324Z,24.96
2019-03-23T12:12:54.335Z,23.82
2019-03-23T12:17:48.471Z,22.83
2019-03-23T12:22:42.800Z,20.30
2019-03-23T12:27:36.957Z,20.43
2019-03-23T12:32:31.370Z,20.37
2019-03-23T12:37:25.449Z,19.71
2019-03-23T12:42:19.510Z,20.78
2019-03-23T12:47:13.995Z,21.90
2019-03-23T12:52:07.987Z,21.62
2019-03-23T12:57:02.212Z,21.92
2019-03-23T13:01:56.219Z,20.33
2019-03-23T13:06:50.196Z,18.62
2019-03-23T13:11:44.306Z,18.18
2019-03-23T13:16:38.304Z,18.18
2019-03-23T13:21:32.487Z,17.81
2019-03-23T13:26:26.863Z,18.11
2019-03-23T13:31:20.977Z,17.87
2019-03-23T13:36:15.086Z,18.19
2019-03-23T13:41:09.189Z,18.69
2019-03-23T13:46:03.378Z,18.54
2019-03-23T13:50:57.437Z,19.29
2019-03-23T13:55:51.548Z,19.28
2019-03-23T14:00:45.669Z,19.79
2019-03-23T14:05:39.741Z,19.81
2019-03-23T14:10:33.867Z,19.06
2019-03-23T14:15:27.948Z,19.91
2019-03-23T14:20:22.048Z,20.16
2019-03-23T14:25:16.243Z,19.37
2019-03-23T14:30:10.535Z,18.67
2019-03-23T14:35:05.520Z,18.16
2019-03-23T14:39:59.618Z,18.19
2019-03-23T14:44:53.855Z,17.82
2019-03-23T14:49:47.823Z,17.03
2019-03-23T14:54:41.822Z,16.88
2019-03-23T14:59:35.838Z,16.48
2019-03-23T15:04:29.814Z,16.49
2019-03-23T15:09:23.813Z,16.35
2019-03-23T15:14:17.827Z,15.97
2019-03-23T15:19:11.822Z,15.52
2019-03-23T15:24:06.014Z,15.12
2019-03-23T15:29:00.026Z,14.39
2019-03-23T15:33:54.090Z,13.87
2019-03-23T15:38:48.101Z,14.02
2019-03-23T15:43:42.312Z,14.01
2019-03-23T15:48:36.281Z,13.85
2019-03-23T15:53:30.471Z,13.93
2019-03-23T15:58:24.574Z,14.06
2019-03-23T16:03:18.678Z,14.18
2019-03-23T16:08:12.862Z,14.26
2019-03-23T16:13:06.865Z,14.40
2019-03-23T16:18:01.750Z,14.55
2019-03-23T16:22:55.891Z,14.46
2019-03-23T16:27:49.952Z,14.34
2019-03-23T16:32:43.944Z,14.25
2019-03-23T16:37:37.948Z,14.09
2019-03-23T16:42:31.942Z,13.93
2019-03-23T16:47:25.930Z,13.84
2019-03-23T16:52:19.948Z,13.75
2019-03-23T16:57:14.009Z,13.69
2019-03-23T17:02:08.104Z,13.55
2019-03-23T17:07:02.075Z,13.39
2019-03-23T17:11:56.156Z,13.33
2019-03-23T17:16:50.364Z,13.28
2019-03-23T17:21:44.385Z,13.21
2019-03-23T17:26:38.353Z,13.09
2019-03-23T17:31:32.373Z,13.00
2019-03-23T17:36:26.332Z,12.95
2019-03-23T17:41:20.443Z,12.84
2019-03-23T17:46:14.675Z,12.76
2019-03-23T17:51:08.741Z,12.73
2019-03-23T17:56:02.869Z,12.67
2019-03-23T18:00:57.154Z,12.62
2019-03-23T18:05:51.263Z,12.58
2019-03-23T18:10:45.245Z,12.56
2019-03-23T18:15:39.247Z,12.49
2019-03-23T18:20:33.336Z,12.50
2019-03-23T18:25:27.543Z,12.41
2019-03-23T18:30:41.379Z,12.42
2019-03-23T18:35:35.440Z,12.40
2019-03-23T18:40:30.710Z,12.37
2019-03-23T18:45:24.846Z,12.33
2019-03-23T18:50:18.829Z,12.31
2019-03-23T18:55:12.893Z,12.27
2019-03-23T19:00:08.024Z,12.27
2019-03-23T19:05:02.725Z,12.26
2019-03-23T19:09:56.792Z,12.24
2019-03-23T19:14:50.789Z,12.22
2019-03-23T19:19:44.786Z,12.22
2019-03-23T19:24:38.804Z,12.18
2019-03-23T19:29:32.997Z,12.16
2019-03-23T19:34:27.116Z,12.13
2019-03-23T19:39:21.087Z,12.10
2019-03-23T19:44:15.083Z,12.08
2019-03-23T19:49:09.055Z,12.06
2019-03-23T19:54:03.393Z,12.06
2019-03-23T19:58:57.465Z,12.01
2019-03-23T20:03:51.575Z,11.99
2019-03-23T20:08:45.570Z,11.99
2019-03-23T20:13:39.559Z,11.99
2019-03-23T20:18:33.667Z,11.95
2019-03-23T20:23:27.589Z,11.92
2019-03-23T20:28:21.690Z,11.93
2019-03-23T20:33:19.647Z,11.92
2019-03-23T20:38:11.636Z,11.93
2019-03-23T20:43:05.867Z,11.88
2019-03-23T20:48:00.878Z,11.87
2019-03-23T20:52:55.045Z,11.86
2019-03-23T20:57:49.124Z,11.82
2019-03-23T21:02:43.149Z,11.78
2019-03-23T21:07:37.099Z,11.76
2019-03-23T21:12:31.199Z,11.77
2019-03-23T21:17:25.178Z,11.74
2019-03-23T21:22:19.369Z,11.72
2019-03-23T21:27:13.577Z,11.68
2019-03-23T21:32:07.564Z,11.69
2019-03-23T21:37:01.771Z,11.63
2019-03-23T21:41:55.802Z,11.52
2019-03-23T21:46:49.834Z,11.48
2019-03-23T21:51:43.999Z,11.44
2019-03-23T21:56:37.998Z,11.44
2019-03-23T22:01:32.030Z,11.49
2019-03-23T22:06:26.109Z,11.44
2019-03-23T22:11:20.265Z,11.47
2019-03-23T22:16:14.281Z,11.50
2019-03-23T22:21:08.266Z,11.52
2019-03-23T22:26:02.348Z,11.52
2019-03-23T22:30:56.345Z,11.51
2019-03-23T22:35:50.344Z,11.49
2019-03-23T22:40:44.416Z,11.47
2019-03-23T22:45:38.447Z,11.45
2019-03-23T22:50:32.429Z,11.40
2019-03-23T22:55:26.415Z,11.41
2019-03-23T23:00:22.991Z,11.39
2019-03-23T23:05:17.193Z,11.36
2019-03-23T23:10:11.412Z,11.31
2019-03-23T23:15:05.891Z,11.29
2019-03-23T23:19:59.871Z,11.24
2019-03-23T23:24:53.876Z,11.13
2019-03-23T23:29:47.822Z,11.06
2019-03-23T23:34:41.838Z,11.02
2019-03-23T23:39:35.832Z,10.94
2019-03-23T23:44:29.822Z,10.89
2019-03-23T23:49:23.959Z,10.87
2019-03-23T23:54:18.058Z,10.80
2019-03-23T23:59:12.037Z,10.69
